Time;durP1;ratioP1;P1;durP2;ratioP2;P2;SDS_P1;SDS_P2;PMS_P1;PMS_P2;Temp;Humidity;BMP_temperature;BMP_pressure;BME280_temperature;BME280_humidity;BME280_pressure;Samples;Min_cycle;Max_cycle;Signal;HPM_P1;HPM_P2
2021/12/27 00:02:04;;;;;;;5.13;4.18;;;14.90;51.20;;;;;;5120856;28;20028;-38
2021/12/27 00:04:31;;;;;;;4.93;3.95;;;14.90;51.10;;;;;;5120679;28;20012;-38
2021/12/27 00:06:57;;;;;;;4.65;3.85;;;14.90;51.30;;;;;;5120896;28;20083;-37
2021/12/27 00:09:24;;;;;;;4.88;3.80;;;14.90;51.50;;;;;;5120771;28;20016;-38
2021/12/27 00:11:49;;;;;;;4.72;3.95;;;14.90;51.50;;;;;;5120275;28;20024;-38
2021/12/27 00:14:15;;;;;;;4.55;3.72;;;14.90;51.40;;;;;;5119154;28;20149;-38
2021/12/27 00:16:42;;;;;;;4.55;3.90;;;14.90;51.40;;;;;;5119244;28;20142;-38
2021/12/27 00:19:09;;;;;;;4.10;3.40;;;14.90;51.30;;;;;;5119691;28;20051;-38
2021/12/27 00:21:35;;;;;;;5.22;4.07;;;14.90;51.60;;;;;;5101547;28;20438;-42
2021/12/27 00:24:02;;;;;;;4.25;3.70;;;14.90;51.50;;;;;;5120258;28;20498;-43
2021/12/27 00:26:29;;;;;;;4.95;4.15;;;14.90;51.50;;;;;;5120126;28;20032;-41
2021/12/27 00:28:55;;;;;;;5.05;3.90;;;14.90;51.60;;;;;;5120696;28;20012;-40
2021/12/27 00:31:21;;;;;;;5.32;4.20;;;14.90;51.70;;;;;;5102165;28;20035;-39
2021/12/27 00:33:47;;;;;;;5.70;3.90;;;14.90;51.60;;;;;;5117978;28;20023;-42
2021/12/27 00:36:13;;;;;;;4.45;3.70;;;14.80;51.60;;;;;;5101701;28;20478;-44
2021/12/27 00:38:39;;;;;;;4.68;3.60;;;14.80;51.60;;;;;;5119460;28;20026;-43
2021/12/27 00:41:06;;;;;;;5.18;4.00;;;14.90;51.80;;;;;;5120324;28;20050;-38
2021/12/27 00:43:32;;;;;;;4.38;3.63;;;14.90;51.80;;;;;;5119482;28;20506;-37
2021/12/27 00:45:57;;;;;;;4.85;3.65;;;14.80;51.90;;;;;;5120073;28;20518;-38
2021/12/27 00:48:24;;;;;;;4.55;3.70;;;14.80;51.90;;;;;;5120093;28;20420;-44
2021/12/27 00:50:50;;;;;;;5.00;3.97;;;14.80;51.80;;;;;;5120453;28;20024;-38
2021/12/27 00:53:17;;;;;;;4.35;3.45;;;14.90;51.80;;;;;;5120270;28;20031;-38
2021/12/27 00:55:44;;;;;;;4.93;3.75;;;14.80;51.90;;;;;;5120243;28;20016;-38
2021/12/27 00:58:10;;;;;;;4.70;3.90;;;14.80;51.90;;;;;;5118373;28;20024;-39
2021/12/27 01:00:36;;;;;;;5.15;3.70;;;14.80;51.90;;;;;;5099946;28;20016;-38
2021/12/27 01:03:02;;;;;;;5.28;3.75;;;14.80;52.10;;;;;;5098705;28;20423;-40
2021/12/27 01:05:28;;;;;;;5.47;3.75;;;14.80;52.10;;;;;;5098997;28;20019;-39
2021/12/27 01:07:54;;;;;;;5.00;3.78;;;14.80;52.40;;;;;;5116991;28;20019;-40
2021/12/27 01:13:02;;;;;;;4.32;3.65;;;14.80;52.30;;;;;;5098624;28;20485;-38
2021/12/27 01:18:06;;;;;;;4.85;3.95;;;14.80;52.40;;;;;;5114853;28;20032;-39
2021/12/27 01:20:35;;;;;;;4.25;3.47;;;14.80;52.50;;;;;;5115106;28;20024;-40
2021/12/27 01:23:01;;;;;;;5.32;3.95;;;14.80;52.60;;;;;;5115014;28;20027;-37
2021/12/27 01:25:28;;;;;;;4.32;3.50;;;14.80;52.50;;;;;;5115128;28;20020;-39
2021/12/27 01:27:54;;;;;;;5.80;4.20;;;14.80;52.30;;;;;;5115404;28;20043;-37
2021/12/27 01:30:21;;;;;;;4.53;3.60;;;14.80;52.20;;;;;;5114654;28;20023;-37
2021/12/27 01:32:54;;;;;;;4.55;3.58;;;14.80;52.40;;;;;;5114852;28;20018;-38
2021/12/27 01:35:20;;;;;;;4.93;3.70;;;14.80;52.50;;;;;;5114780;28;20043;-38
2021/12/27 01:37:46;;;;;;;3.88;3.25;;;14.80;52.60;;;;;;5114701;28;20489;-38
2021/12/27 01:40:13;;;;;;;4.32;3.35;;;14.80;52.60;;;;;;5096742;28;20031;-40
2021/12/27 01:43:05;;;;;;;4.45;3.60;;;14.80;52.60;;;;;;5115410;28;20011;-44
2021/12/27 01:45:31;;;;;;;4.68;3.60;;;14.80;52.60;;;;;;5116351;28;20056;-40
2021/12/27 01:47:57;;;;;;;3.90;3.50;;;14.80;52.70;;;;;;5116141;28;20088;-44
2021/12/27 01:50:23;;;;;;;4.55;3.75;;;14.80;52.50;;;;;;5115827;28;20474;-42
2021/12/27 01:52:49;;;;;;;4.30;3.25;;;14.80;52.60;;;;;;5098375;28;20023;-41
2021/12/27 01:55:14;;;;;;;5.07;3.75;;;14.80;52.70;;;;;;5099594;28;20004;-44
2021/12/27 01:57:40;;;;;;;4.20;3.45;;;14.80;52.80;;;;;;5119356;28;20374;-44
2021/12/27 02:00:06;;;;;;;5.15;3.50;;;14.80;52.80;;;;;;5101261;28;20489;-39
2021/12/27 02:02:33;;;;;;;4.00;3.20;;;14.80;52.60;;;;;;5118897;28;20020;-42
2021/12/27 02:04:58;;;;;;;4.55;3.70;;;14.80;52.60;;;;;;5117992;28;20107;-39
2021/12/27 02:07:25;;;;;;;4.32;3.70;;;14.70;52.70;;;;;;5098880;28;20051;-38
2021/12/27 02:10:02;;;;;;;4.72;3.40;;;14.70;52.80;;;;;;5117624;28;20073;-41
2021/12/27 02:12:31;;;;;;;4.65;3.70;;;14.70;52.70;;;;;;5117241;28;20026;-41
2021/12/27 02:14:57;;;;;;;5.53;3.80;;;14.80;53.00;;;;;;5118520;28;20012;-41
2021/12/27 02:17:23;;;;;;;4.55;3.50;;;14.70;52.80;;;;;;5118423;28;20498;-41
2021/12/27 02:19:54;;;;;;;4.55;3.75;;;14.70;52.80;;;;;;5118671;28;20031;-40
2021/12/27 02:22:21;;;;;;;4.35;3.67;;;14.70;52.80;;;;;;5118491;28;20481;-41
2021/12/27 02:24:48;;;;;;;3.40;3.10;;;14.70;52.80;;;;;;5117622;28;20012;-39
2021/12/27 02:27:14;;;;;;;4.15;3.58;;;14.70;53.00;;;;;;5117318;28;20019;-39
2021/12/27 02:29:41;;;;;;;3.53;3.10;;;14.70;52.90;;;;;;5118017;28;20022;-39
2021/12/27 02:32:07;;;;;;;4.30;3.40;;;14.70;52.90;;;;;;5116735;28;20023;-37
2021/12/27 02:34:34;;;;;;;3.65;3.20;;;14.70;52.90;;;;;;5115417;28;20023;-38
2021/12/27 02:37:00;;;;;;;4.00;3.40;;;14.70;52.90;;;;;;5116226;28;20019;-38
2021/12/27 02:39:29;;;;;;;3.72;3.20;;;14.70;53.20;;;;;;5098169;28;20558;-38
2021/12/27 02:41:54;;;;;;;4.60;3.55;;;14.70;53.00;;;;;;5097983;28;20469;-38
2021/12/27 02:44:20;;;;;;;4.30;3.60;;;14.70;53.50;;;;;;5116666;28;20019;-38
2021/12/27 02:46:46;;;;;;;4.53;3.60;;;14.70;53.00;;;;;;5098675;28;20019;-38
2021/12/27 02:49:13;;;;;;;4.00;3.40;;;14.70;53.40;;;;;;5116286;28;20016;-38
2021/12/27 02:51:38;;;;;;;3.95;3.40;;;14.70;53.40;;;;;;5115608;28;20031;-39
2021/12/27 02:54:04;;;;;;;4.45;3.30;;;14.70;53.20;;;;;;5116820;28;20024;-40
2021/12/27 02:56:31;;;;;;;5.43;3.30;;;14.70;53.40;;;;;;5117763;28;20016;-38
2021/12/27 02:58:57;;;;;;;4.38;3.33;;;14.70;53.20;;;;;;5117789;28;20011;-38
2021/12/27 03:01:23;;;;;;;5.47;3.88;;;14.70;53.30;;;;;;5117568;28;20038;-37
2021/12/27 03:03:49;;;;;;;4.72;3.67;;;14.60;53.40;;;;;;5117663;28;20020;-37
2021/12/27 03:06:15;;;;;;;4.40;3.45;;;14.70;53.30;;;;;;5117635;28;20102;-37
2021/12/27 03:08:42;;;;;;;4.63;3.65;;;14.70;53.60;;;;;;5117518;28;20050;-37
2021/12/27 03:11:10;;;;;;;4.53;3.28;;;14.70;54.20;;;;;;5117524;28;20023;-38
2021/12/27 03:13:37;;;;;;;4.13;3.40;;;14.70;53.70;;;;;;5099613;28;20091;-37
2021/12/27 03:16:10;;;;;;;4.40;3.40;;;14.70;53.50;;;;;;5117266;28;20012;-37
2021/12/27 03:18:38;;;;;;;4.50;3.35;;;14.70;53.60;;;;;;5117270;28;20546;-37
2021/12/27 03:21:04;;;;;;;4.38;3.53;;;14.70;53.70;;;;;;5099172;28;20016;-38
2021/12/27 03:23:30;;;;;;;4.30;3.33;;;14.70;53.60;;;;;;5099269;28;20028;-38
2021/12/27 03:25:56;;;;;;;3.95;3.30;;;14.70;53.80;;;;;;5117216;28;20020;-38
2021/12/27 03:28:22;;;;;;;4.35;3.42;;;14.70;53.90;;;;;;5117027;28;20557;-38
2021/12/27 03:30:48;;;;;;;4.70;3.28;;;14.70;53.90;;;;;;5098760;28;20106;-38
2021/12/27 03:33:14;;;;;;;4.50;3.80;;;14.70;53.90;;;;;;5098594;28;20111;-38
2021/12/27 03:35:51;;;;;;;5.40;3.50;;;14.70;53.80;;;;;;5116636;28;20012;-38
2021/12/27 03:38:17;;;;;;;4.10;3.20;;;14.70;53.80;;;;;;5116814;28;20466;-38
2021/12/27 03:40:45;;;;;;;4.15;3.33;;;14.60;53.60;;;;;;5116748;28;20711;-37
2021/12/27 03:43:12;;;;;;;4.00;3.10;;;14.60;53.90;;;;;;5119037;28;20024;-38
2021/12/27 03:45:39;;;;;;;4.68;3.53;;;14.60;53.60;;;;;;5084552;28;20034;-39
2021/12/27 03:48:06;;;;;;;4.82;3.47;;;14.60;53.80;;;;;;5120299;28;20068;-38
2021/12/27 03:50:32;;;;;;;3.78;3.00;;;14.60;54.00;;;;;;5119683;28;20107;-37
2021/12/27 03:52:58;;;;;;;4.10;3.15;;;14.60;54.00;;;;;;5120144;28;20031;-38
2021/12/27 03:55:24;;;;;;;4.63;3.30;;;14.60;53.80;;;;;;5101917;28;20039;-38
2021/12/27 03:57:55;;;;;;;4.15;3.50;;;14.60;53.90;;;;;;5120463;28;20069;-38
2021/12/27 04:02:53;;;;;;;4.15;3.15;;;14.60;54.00;;;;;;5101632;28;20034;-39
2021/12/27 04:05:19;;;;;;;4.75;3.58;;;14.60;54.10;;;;;;5101519;28;20026;-38
2021/12/27 04:07:48;;;;;;;4.30;3.40;;;14.60;54.70;;;;;;5101667;28;20012;-37
2021/12/27 04:10:15;;;;;;;4.68;3.53;;;14.60;54.00;;;;;;5119839;28;20026;-39
2021/12/27 04:12:42;;;;;;;5.15;3.20;;;14.60;54.00;;;;;;5119127;28;20095;-39
2021/12/27 04:15:10;;;;;;;5.50;3.60;;;14.70;54.00;;;;;;5118633;28;20462;-39
2021/12/27 04:17:36;;;;;;;4.55;3.30;;;14.60;54.10;;;;;;5118304;28;20036;-39
2021/12/27 04:20:02;;;;;;;4.85;3.60;;;14.60;54.10;;;;;;5118143;28;20542;-39
2021/12/27 04:22:33;;;;;;;3.63;3.15;;;14.60;54.20;;;;;;5118295;28;20031;-37
2021/12/27 04:24:59;;;;;;;4.03;3.42;;;14.60;54.30;;;;;;5117892;28;20045;-38
2021/12/27 04:27:25;;;;;;;4.85;3.60;;;14.60;54.20;;;;;;5118056;28;20082;-38
2021/12/27 04:29:52;;;;;;;4.43;3.40;;;14.60;54.20;;;;;;5118526;28;20012;-37
2021/12/27 04:32:18;;;;;;;5.00;3.78;;;14.60;54.20;;;;;;5118345;28;20020;-38
2021/12/27 04:34:46;;;;;;;4.85;3.60;;;14.60;54.20;;;;;;5117459;28;20430;-37
2021/12/27 04:37:12;;;;;;;4.75;3.55;;;14.60;54.20;;;;;;5117803;28;20016;-38
2021/12/27 04:39:39;;;;;;;4.88;3.85;;;14.60;54.30;;;;;;5100097;28;20088;-37
2021/12/27 04:42:05;;;;;;;5.10;3.67;;;14.60;54.50;;;;;;5117324;28;20008;-38
2021/12/27 04:44:31;;;;;;;4.95;3.67;;;14.60;54.20;;;;;;5117378;28;20019;-39
2021/12/27 04:46:57;;;;;;;4.43;3.63;;;14.60;54.40;;;;;;5117930;28;20069;-38
2021/12/27 04:49:23;;;;;;;5.82;3.72;;;14.60;54.40;;;;;;5099443;28;20024;-39
2021/12/27 04:51:49;;;;;;;5.32;3.90;;;14.60;54.30;;;;;;5117394;28;20114;-37
2021/12/27 04:54:16;;;;;;;5.80;3.90;;;14.60;54.40;;;;;;5117650;28;20011;-39
2021/12/27 04:56:41;;;;;;;6.25;3.90;;;14.70;54.20;;;;;;5117621;28;20350;-38
2021/12/27 04:59:08;;;;;;;6.63;4.25;;;14.60;54.30;;;;;;5099671;28;20008;-40
2021/12/27 05:01:34;;;;;;;7.75;4.38;;;14.60;54.30;;;;;;5117566;28;20043;-37
2021/12/27 05:04:00;;;;;;;4.88;3.75;;;14.60;54.60;;;;;;5117306;28;20072;-38
2021/12/27 05:06:27;;;;;;;4.68;3.70;;;14.60;54.40;;;;;;5117253;28;20015;-37
2021/12/27 05:08:53;;;;;;;6.85;4.35;;;14.60;54.60;;;;;;5099823;28;20027;-37
2021/12/27 05:11:20;;;;;;;6.00;4.22;;;14.60;54.60;;;;;;5116697;28;20498;-38
2021/12/27 05:13:46;;;;;;;5.15;3.80;;;14.60;54.70;;;;;;5116848;28;20026;-38
2021/12/27 05:16:12;;;;;;;6.82;4.40;;;14.50;54.60;;;;;;5116686;28;20035;-37
2021/12/27 05:18:39;;;;;;;6.40;3.80;;;14.50;54.60;;;;;;5115463;28;20470;-41
2021/12/27 05:21:05;;;;;;;5.43;3.95;;;14.60;54.90;;;;;;5116241;28;20015;-40
2021/12/27 05:23:33;;;;;;;6.35;4.25;;;14.50;54.80;;;;;;5116652;28;20020;-39
2021/12/27 05:25:59;;;;;;;6.38;3.95;;;14.60;54.80;;;;;;5081561;28;20028;-41
2021/12/27 05:28:25;;;;;;;4.85;3.83;;;14.60;54.80;;;;;;5116219;28;20026;-39
2021/12/27 05:30:52;;;;;;;5.82;3.90;;;14.60;54.70;;;;;;5098639;28;20047;-39
2021/12/27 05:33:21;;;;;;;6.15;3.92;;;14.60;54.80;;;;;;5117067;28;20011;-38
2021/12/27 05:35:47;;;;;;;5.30;3.70;;;14.60;54.90;;;;;;5117549;28;20020;-39
2021/12/27 05:38:14;;;;;;;5.90;4.05;;;14.50;55.00;;;;;;5117394;28;20035;-42
2021/12/27 05:40:42;;;;;;;5.82;4.10;;;14.50;54.90;;;;;;5117073;28;20024;-40
2021/12/27 05:43:09;;;;;;;6.53;3.83;;;14.50;55.00;;;;;;5098821;28;20104;-37
2021/12/27 05:45:35;;;;;;;6.82;3.90;;;14.50;54.90;;;;;;5098171;28;20020;-37
2021/12/27 05:48:01;;;;;;;6.10;3.80;;;14.50;55.00;;;;;;5116368;28;20035;-37
2021/12/27 05:50:27;;;;;;;5.15;3.70;;;14.50;55.00;;;;;;5116280;28;20023;-37
2021/12/27 05:52:53;;;;;;;6.00;4.07;;;14.50;55.10;;;;;;5116232;28;20034;-38
2021/12/27 05:55:20;;;;;;;4.88;3.50;;;14.50;55.20;;;;;;5116193;28;20061;-37
2021/12/27 05:57:46;;;;;;;5.32;4.00;;;14.50;55.20;;;;;;5114475;28;20099;-37
2021/12/27 06:00:14;;;;;;;5.60;3.60;;;14.50;54.80;;;;;;5113995;28;20063;-37
2021/12/27 06:02:41;;;;;;;7.05;4.00;;;14.60;54.70;;;;;;5113978;28;20047;-37
2021/12/27 06:05:06;;;;;;;5.20;3.83;;;14.70;54.80;;;;;;5114030;28;20087;-37
2021/12/27 06:07:32;;;;;;;6.07;3.65;;;14.70;55.20;;;;;;5095778;28;20465;-38
2021/12/27 06:09:58;;;;;;;5.03;3.70;;;14.70;54.60;;;;;;5114052;28;20027;-38
2021/12/27 06:12:24;;;;;;;6.22;3.63;;;14.80;54.70;;;;;;5115501;28;20016;-39
2021/12/27 06:14:50;;;;;;;4.25;3.00;;;14.80;54.20;;;;;;5116405;28;20035;-39
2021/12/27 06:17:16;;;;;;;5.60;3.53;;;14.90;53.70;;;;;;5098104;28;20066;-38
2021/12/27 06:19:43;;;;;;;5.78;3.63;;;15.10;53.30;;;;;;5117413;28;20023;-39
2021/12/27 06:22:09;;;;;;;4.57;3.17;;;15.20;53.60;;;;;;5098714;28;20018;-39
2021/12/27 06:24:35;;;;;;;4.55;3.25;;;15.30;52.80;;;;;;5117282;28;20109;-40
2021/12/27 06:27:02;;;;;;;4.30;2.97;;;15.40;52.50;;;;;;5099419;28;20016;-38
2021/12/27 06:29:28;;;;;;;6.10;3.58;;;15.50;52.30;;;;;;5116374;28;20020;-39
2021/12/27 06:31:54;;;;;;;4.68;3.40;;;15.50;52.20;;;;;;5115381;28;20055;-41
2021/12/27 06:34:20;;;;;;;3.90;3.20;;;15.50;52.00;;;;;;5115874;28;20027;-38
2021/12/27 06:36:46;;;;;;;3.85;2.80;;;15.60;51.80;;;;;;5116101;28;20020;-37
2021/12/27 06:39:12;;;;;;;3.95;3.05;;;15.60;51.70;;;;;;5115375;28;20024;-39
2021/12/27 06:41:39;;;;;;;4.22;2.90;;;15.70;51.70;;;;;;5115296;28;20038;-38
2021/12/27 06:44:06;;;;;;;4.57;3.22;;;15.70;51.60;;;;;;5115695;28;20015;-39
2021/12/27 06:46:32;;;;;;;4.70;3.20;;;15.70;51.50;;;;;;5115338;28;20042;-38
2021/12/27 06:48:59;;;;;;;4.15;2.92;;;15.70;51.40;;;;;;5115423;28;20094;-39
2021/12/27 06:51:26;;;;;;;3.60;2.70;;;15.80;51.40;;;;;;5115555;28;20024;-38
2021/12/27 06:53:53;;;;;;;4.10;3.00;;;15.80;51.40;;;;;;5115878;28;20073;-37
2021/12/27 06:56:18;;;;;;;5.20;3.38;;;15.90;51.20;;;;;;5115942;28;20069;-39
2021/12/27 06:58:45;;;;;;;4.32;2.97;;;15.90;51.10;;;;;;5117811;28;20043;-37
2021/12/27 07:01:11;;;;;;;4.85;2.90;;;15.90;51.10;;;;;;5118294;28;20019;-38
2021/12/27 07:03:36;;;;;;;5.45;3.28;;;15.90;51.10;;;;;;5118094;28;20046;-38
2021/12/27 07:06:03;;;;;;;5.35;3.25;;;15.90;51.10;;;;;;5117880;28;20119;-38
2021/12/27 07:08:29;;;;;;;3.70;2.80;;;15.90;51.00;;;;;;5118620;28;20054;-41
2021/12/27 07:10:55;;;;;;;4.43;2.92;;;16.00;51.00;;;;;;5117910;28;20051;-38
2021/12/27 07:13:23;;;;;;;3.90;3.10;;;16.00;51.00;;;;;;5117893;28;20043;-39
2021/12/27 07:15:50;;;;;;;7.05;3.35;;;16.00;51.00;;;;;;5117334;28;20083;-37
2021/12/27 07:18:22;;;;;;;3.97;2.85;;;16.00;51.00;;;;;;5116899;28;20036;-39
2021/12/27 07:20:48;;;;;;;4.43;2.97;;;16.00;50.80;;;;;;5116870;28;20011;-38
2021/12/27 07:23:15;;;;;;;4.10;2.67;;;16.00;50.90;;;;;;5117505;28;20023;-38
2021/12/27 07:25:40;;;;;;;3.95;2.95;;;16.00;50.80;;;;;;5117940;28;20099;-39
2021/12/27 07:28:08;;;;;;;3.65;2.55;;;16.10;50.80;;;;;;5099964;28;20520;-38
2021/12/27 07:30:34;;;;;;;3.50;2.65;;;16.10;50.80;;;;;;5117840;28;20084;-39
2021/12/27 07:33:00;;;;;;;4.03;2.72;;;16.10;50.70;;;;;;5118348;28;20065;-39
2021/12/27 07:35:27;;;;;;;4.38;3.00;;;16.10;50.70;;;;;;5118442;28;20030;-38
2021/12/27 07:37:53;;;;;;;4.40;2.90;;;16.20;50.70;;;;;;5084176;28;20016;-39
2021/12/27 07:40:19;;;;;;;4.00;2.72;;;16.20;50.60;;;;;;5083472;28;20482;-39
2021/12/27 07:42:45;;;;;;;3.33;2.50;;;16.20;50.70;;;;;;5120460;28;20118;-37
2021/12/27 07:45:12;;;;;;;3.67;2.80;;;16.20;50.60;;;;;;5121811;28;20015;-40
2021/12/27 07:47:38;;;;;;;3.85;2.60;;;16.20;50.70;;;;;;5120814;28;20028;-37
2021/12/27 07:50:05;;;;;;;4.45;2.72;;;16.20;50.60;;;;;;5102491;28;20028;-39
2021/12/27 07:52:30;;;;;;;4.00;2.83;;;16.20;50.60;;;;;;5121344;28;20026;-39
2021/12/27 07:54:57;;;;;;;4.47;2.83;;;16.20;50.50;;;;;;5120199;28;20037;-39
2021/12/27 07:57:23;;;;;;;4.03;2.58;;;16.30;50.40;;;;;;5121292;28;20020;-38
2021/12/27 07:59:50;;;;;;;3.00;2.45;;;16.20;50.30;;;;;;5121450;28;20023;-38
2021/12/27 08:02:16;;;;;;;3.67;2.60;;;16.30;50.40;;;;;;5121637;28;20020;-39
2021/12/27 08:04:42;;;;;;;3.30;2.47;;;16.20;50.50;;;;;;5102858;28;20026;-38
2021/12/27 08:07:08;;;;;;;3.55;2.50;;;16.30;50.40;;;;;;5102479;28;20045;-38
2021/12/27 08:09:34;;;;;;;3.53;2.33;;;16.30;50.40;;;;;;5120965;28;20019;-41
2021/12/27 08:12:02;;;;;;;4.00;2.72;;;16.30;50.50;;;;;;5100959;28;20027;-38
2021/12/27 08:14:28;;;;;;;3.70;2.42;;;16.30;50.50;;;;;;5116780;28;20497;-38
2021/12/27 08:16:55;;;;;;;2.90;2.38;;;16.30;50.40;;;;;;5116383;28;20039;-37
2021/12/27 08:19:21;;;;;;;3.97;2.60;;;16.30;50.30;;;;;;5116905;28;20011;-38
2021/12/27 08:21:47;;;;;;;2.90;2.38;;;16.30;50.30;;;;;;5116636;28;20067;-39
2021/12/27 08:24:14;;;;;;;2.83;2.22;;;16.30;50.20;;;;;;5099108;28;20051;-39
2021/12/27 08:26:41;;;;;;;3.22;2.30;;;16.40;50.30;;;;;;5116886;28;20016;-40
2021/12/27 08:29:07;;;;;;;4.05;2.38;;;16.40;50.30;;;;;;5117412;28;20047;-40
2021/12/27 08:31:34;;;;;;;2.88;2.10;;;16.40;50.20;;;;;;5116810;28;20027;-39
2021/12/27 08:34:00;;;;;;;3.33;2.38;;;16.30;50.30;;;;;;5117311;28;20150;-39
2021/12/27 08:36:26;;;;;;;4.22;2.40;;;16.40;50.30;;;;;;5117004;28;20023;-39
2021/12/27 08:38:53;;;;;;;2.88;2.10;;;16.40;50.30;;;;;;5117235;28;20020;-38
2021/12/27 08:41:19;;;;;;;3.30;2.08;;;16.40;50.30;;;;;;5116761;28;20041;-41
2021/12/27 08:43:44;;;;;;;3.40;2.20;;;16.40;50.30;;;;;;5116622;28;20094;-39
2021/12/27 08:46:11;;;;;;;2.95;2.15;;;16.40;50.30;;;;;;5116184;28;20461;-40
2021/12/27 08:48:36;;;;;;;2.70;2.00;;;16.40;50.20;;;;;;5115893;28;20051;-40
2021/12/27 08:51:05;;;;;;;3.45;2.03;;;16.40;50.30;;;;;;5116069;28;20027;-40
2021/12/27 08:53:31;;;;;;;4.25;2.22;;;16.30;50.30;;;;;;5114955;28;20094;-39
2021/12/27 08:55:58;;;;;;;2.97;2.20;;;16.40;50.20;;;;;;5116516;28;20015;-40
2021/12/27 08:58:24;;;;;;;3.13;2.10;;;16.40;50.20;;;;;;5116767;28;20016;-40
2021/12/27 09:00:51;;;;;;;4.22;2.35;;;16.40;50.30;;;;;;5116594;28;20028;-38
2021/12/27 09:03:17;;;;;;;2.63;2.10;;;16.40;50.20;;;;;;5117099;28;20027;-38
2021/12/27 09:05:43;;;;;;;3.60;2.10;;;16.50;50.10;;;;;;5117616;28;20030;-40
2021/12/27 09:08:10;;;;;;;3.25;2.00;;;16.50;50.10;;;;;;5099346;28;20042;-37
2021/12/27 09:10:36;;;;;;;2.45;1.95;;;16.50;50.10;;;;;;5099143;28;20035;-38
2021/12/27 09:13:02;;;;;;;3.58;1.90;;;16.50;50.20;;;;;;5097890;28;20011;-38
2021/12/27 09:15:29;;;;;;;3.13;2.10;;;16.50;50.20;;;;;;5098695;28;20090;-37
2021/12/27 09:17:55;;;;;;;3.70;2.10;;;16.50;50.20;;;;;;5116639;28;20063;-38
2021/12/27 09:20:24;;;;;;;2.20;2.00;;;16.50;50.20;;;;;;5116462;28;20145;-37
2021/12/27 09:22:50;;;;;;;3.85;2.30;;;16.60;50.20;;;;;;5081564;28;20016;-37
2021/12/27 09:25:15;;;;;;;2.78;2.13;;;16.50;50.20;;;;;;5080969;28;20478;-39
2021/12/27 09:27:41;;;;;;;2.97;2.15;;;16.50;50.10;;;;;;5097685;28;20504;-37
2021/12/27 09:30:07;;;;;;;2.20;1.67;;;16.60;50.10;;;;;;5115736;28;20020;-37
2021/12/27 09:32:33;;;;;;;2.10;1.80;;;16.60;50.10;;;;;;5114811;28;20107;-37
2021/12/27 09:35:00;;;;;;;2.67;1.92;;;16.60;50.10;;;;;;5115318;28;20026;-38
2021/12/27 09:37:26;;;;;;;2.85;1.85;;;16.50;50.10;;;;;;5115600;28;20004;-38
2021/12/27 09:39:54;;;;;;;2.92;1.90;;;16.50;50.10;;;;;;5115466;28;20015;-39
2021/12/27 09:42:24;;;;;;;2.88;1.90;;;16.50;50.20;;;;;;5097817;28;20789;-39
2021/12/27 09:44:50;;;;;;;3.50;2.03;;;16.50;50.10;;;;;;5098663;28;20094;-39
2021/12/27 09:47:19;;;;;;;3.15;1.80;;;16.50;50.10;;;;;;5098175;28;20069;-39
2021/12/27 09:49:45;;;;;;;2.78;1.80;;;16.50;50.20;;;;;;5116938;28;20020;-39
2021/12/27 09:52:11;;;;;;;3.22;2.10;;;16.50;50.20;;;;;;5098150;28;20076;-39
2021/12/27 09:54:37;;;;;;;1.90;1.60;;;16.50;50.20;;;;;;5116610;28;20041;-39
2021/12/27 09:57:03;;;;;;;3.20;2.00;;;16.50;50.20;;;;;;5098114;28;20466;-42
2021/12/27 09:59:30;;;;;;;3.53;1.90;;;16.60;50.20;;;;;;5115976;28;20091;-40
2021/12/27 10:01:56;;;;;;;2.90;1.90;;;16.60;50.20;;;;;;5098859;28;20502;-39
2021/12/27 10:04:23;;;;;;;3.13;2.03;;;16.50;50.10;;;;;;5116252;28;20097;-38
2021/12/27 10:06:48;;;;;;;3.25;2.00;;;16.50;50.10;;;;;;5097497;28;20020;-38
2021/12/27 10:09:14;;;;;;;2.67;1.70;;;16.50;50.10;;;;;;5081089;28;20423;-39
2021/12/27 10:11:42;;;;;;;2.85;2.00;;;16.60;50.10;;;;;;5097951;28;20027;-38
2021/12/27 10:14:13;;;;;;;3.53;2.08;;;16.60;50.10;;;;;;5116102;28;20011;-38
2021/12/27 10:16:45;;;;;;;3.17;1.65;;;16.60;50.10;;;;;;5116024;28;20031;-37
2021/12/27 10:19:13;;;;;;;2.72;1.80;;;16.60;50.10;;;;;;5116105;28;20031;-38
2021/12/27 10:21:42;;;;;;;3.30;1.90;;;16.60;50.10;;;;;;5116121;28;20051;-38
2021/12/27 10:24:39;;;;;;;3.80;1.80;;;16.60;50.10;;;;;;5098606;28;20027;-38
2021/12/27 10:27:05;;;;;;;3.20;1.80;;;16.60;50.20;;;;;;5117135;28;20011;-42
2021/12/27 10:29:32;;;;;;;3.17;1.80;;;16.60;50.20;;;;;;5098055;28;20092;-38
2021/12/27 10:32:06;;;;;;;2.92;1.80;;;16.60;50.20;;;;;;5115734;28;20015;-38
2021/12/27 10:34:35;;;;;;;2.75;1.70;;;16.60;50.20;;;;;;5115942;28;20012;-37
2021/12/27 10:37:08;;;;;;;2.42;1.73;;;16.60;50.10;;;;;;5116196;28;20023;-38
2021/12/27 10:39:44;;;;;;;3.72;1.80;;;16.60;50.10;;;;;;5116262;28;20012;-38
2021/12/27 10:42:13;;;;;;;2.05;1.52;;;16.60;50.10;;;;;;5115600;28;20028;-39
2021/12/27 10:44:39;;;;;;;2.50;1.80;;;16.60;50.10;;;;;;5116177;28;20033;-39
2021/12/27 10:47:22;;;;;;;3.13;1.75;;;16.60;50.20;;;;;;5115691;28;20512;-39
2021/12/27 10:49:48;;;;;;;2.88;1.70;;;16.70;50.20;;;;;;5115645;28;20027;-40
2021/12/27 10:52:14;;;;;;;3.13;1.80;;;16.60;50.10;;;;;;5115893;28;20061;-39
2021/12/27 10:54:40;;;;;;;2.28;1.60;;;16.70;50.20;;;;;;5115333;28;20028;-39
2021/12/27 10:57:07;;;;;;;3.50;1.70;;;16.60;50.10;;;;;;5115824;28;20015;-39
2021/12/27 10:59:32;;;;;;;2.08;1.70;;;16.70;50.10;;;;;;5116165;28;20490;-39
2021/12/27 11:02:13;;;;;;;2.42;1.73;;;16.70;50.20;;;;;;5116285;28;20087;-39
2021/12/27 11:04:39;;;;;;;;;;;16.70;50.20;;;;;;5098710;28;20008;-39
2021/12/27 11:07:05;;;;;;;2.67;1.60;;;16.70;50.20;;;;;;5116023;28;19996;-39
2021/12/27 11:09:32;;;;;;;2.25;1.50;;;16.70;50.20;;;;;;5116513;28;20027;-41
2021/12/27 11:11:59;;;;;;;2.80;1.70;;;16.70;50.20;;;;;;5116229;28;20494;-39
2021/12/27 11:14:25;;;;;;;2.42;1.70;;;16.70;50.30;;;;;;5116080;28;20015;-39
2021/12/27 11:16:55;;;;;;;2.55;1.73;;;16.70;50.20;;;;;;5115902;28;20062;-40
2021/12/27 11:19:20;;;;;;;2.58;1.73;;;16.70;50.20;;;;;;5101445;28;20485;-43
2021/12/27 11:21:49;;;;;;;3.00;1.70;;;16.70;50.20;;;;;;5118999;28;20486;-42
2021/12/27 11:24:15;;;;;;;2.33;1.75;;;16.70;50.30;;;;;;5118933;28;20015;-40
2021/12/27 11:26:42;;;;;;;1.83;1.60;;;16.70;50.30;;;;;;5101086;28;20030;-41
2021/12/27 11:29:28;;;;;;;2.35;1.63;;;16.60;50.20;;;;;;5119008;28;20011;-40
2021/12/27 11:32:17;;;;;;;2.45;1.55;;;16.70;50.30;;;;;;5118684;28;20051;-43
2021/12/27 11:34:59;;;;;;;1.60;1.40;;;16.70;50.30;;;;;;5118581;28;20024;-40
2021/12/27 11:37:56;;;;;;;1.92;1.40;;;16.70;50.30;;;;;;5118860;28;20039;-40
2021/12/27 11:40:22;;;;;;;2.22;1.40;;;16.70;50.40;;;;;;5081211;28;20095;-39
2021/12/27 11:42:56;;;;;;;2.72;1.77;;;16.70;51.00;;;;;;5099900;28;20038;-37
2021/12/27 11:45:44;;;;;;;3.17;1.50;;;16.60;50.40;;;;;;5117419;28;20004;-38
2021/12/27 11:48:11;;;;;;;3.08;1.60;;;16.70;50.50;;;;;;5117656;28;20024;-38
2021/12/27 11:50:56;;;;;;;2.20;1.60;;;16.70;50.50;;;;;;5117322;28;20099;-37
2021/12/27 11:53:35;;;;;;;1.92;1.20;;;16.70;50.50;;;;;;5117327;28;20391;-38
2021/12/27 11:56:02;;;;;;;3.63;1.73;;;16.70;50.60;;;;;;5098685;28;20011;-37
2021/12/27 11:58:35;;;;;;;2.22;1.63;;;16.60;50.50;;;;;;5117401;28;20008;-37
2021/12/27 12:01:04;;;;;;;2.15;1.40;;;16.70;50.50;;;;;;5099740;28;20373;-38
2021/12/27 12:03:34;;;;;;;;;;;16.70;50.50;;;;;;5117752;28;20085;-37
2021/12/27 12:06:00;;;;;;;2.33;1.55;;;16.70;50.40;;;;;;5117694;28;19944;-37
2021/12/27 12:08:26;;;;;;;1.80;1.50;;;16.70;50.40;;;;;;5117154;28;20023;-38
2021/12/27 12:11:00;;;;;;;2.33;1.42;;;16.70;50.50;;;;;;5116992;28;20102;-38
2021/12/27 12:13:28;;;;;;;2.75;1.60;;;16.70;50.50;;;;;;5116944;28;20136;-38
2021/12/27 12:16:06;;;;;;;1.42;1.25;;;16.60;50.60;;;;;;5082649;28;20019;-37
2021/12/27 12:18:32;;;;;;;2.28;1.55;;;16.70;50.70;;;;;;5100295;28;20028;-37
2021/12/27 12:20:59;;;;;;;2.35;1.70;;;16.60;50.70;;;;;;5116995;28;20502;-40
2021/12/27 12:23:26;;;;;;;1.90;1.48;;;16.60;50.90;;;;;;5117073;28;20103;-38
2021/12/27 12:25:59;;;;;;;2.55;1.80;;;16.60;50.90;;;;;;5082014;28;20044;-38
2021/12/27 12:28:26;;;;;;;2.35;1.40;;;16.50;51.00;;;;;;5116956;28;20031;-37
2021/12/27 12:30:52;;;;;;;2.60;1.27;;;16.50;51.10;;;;;;5116512;28;20481;-37
2021/12/27 12:33:28;;;;;;;2.13;1.38;;;16.50;51.20;;;;;;5117440;28;20015;-38
2021/12/27 12:35:58;;;;;;;2.30;1.60;;;16.50;51.30;;;;;;5116624;28;20016;-38
2021/12/27 12:38:25;;;;;;;2.38;1.30;;;16.40;51.40;;;;;;5117388;28;20008;-38
2021/12/27 12:41:01;;;;;;;2.20;1.50;;;16.40;51.40;;;;;;5117014;28;20027;-37
2021/12/27 12:43:49;;;;;;;2.28;1.50;;;16.40;51.50;;;;;;5116635;28;20020;-38
2021/12/27 12:46:28;;;;;;;2.50;1.30;;;16.30;51.60;;;;;;5116357;28;20016;-37
2021/12/27 12:49:01;;;;;;;3.25;1.40;;;16.30;51.70;;;;;;5098262;28;20023;-37
2021/12/27 12:51:38;;;;;;;2.17;1.30;;;16.30;51.80;;;;;;5116282;28;20107;-40
2021/12/27 12:54:07;;;;;;;1.90;1.30;;;16.30;51.90;;;;;;5115664;28;20076;-38
2021/12/27 12:56:36;;;;;;;2.08;1.45;;;16.20;52.00;;;;;;5097715;28;20016;-38
2021/12/27 12:59:02;;;;;;;2.45;1.40;;;16.20;52.00;;;;;;5097998;28;20095;-38